sensor_id;sensor_type;location;lat;lon;timestamp;temperature;humidity
70928;SHT31;58587;53.034;18.576;2023-02-28T06:08:38;-4.78;87.76
70928;SHT31;58587;53.034;18.576;2023-02-28T06:11:04;-4.71;87.83
70928;SHT31;58587;53.034;18.576;2023-02-28T06:13:29;-4.67;87.68
70928;SHT31;58587;53.034;18.576;2023-02-28T06:15:55;-4.64;87.53
70928;SHT31;58587;53.034;18.576;2023-02-28T06:18:20;-4.60;87.64
70928;SHT31;58587;53.034;18.576;2023-02-28T06:20:52;-4.58;87.70
70928;SHT31;58587;53.034;18.576;2023-02-28T06:23:19;-4.52;87.72
70928;SHT31;58587;53.034;18.576;2023-02-28T06:25:45;-4.47;87.68
70928;SHT31;58587;53.034;18.576;2023-02-28T06:28:10;-4.39;87.72
70928;SHT31;58587;53.034;18.576;2023-02-28T06:30:37;-4.30;87.64
70928;SHT31;58587;53.034;18.576;2023-02-28T06:33:02;-4.27;88.04
70928;SHT31;58587;53.034;18.576;2023-02-28T06:35:28;-4.20;88.07
70928;SHT31;58587;53.034;18.576;2023-02-28T06:37:53;-4.15;88.05
70928;SHT31;58587;53.034;18.576;2023-02-28T06:40:18;-4.05;88.44
70928;SHT31;58587;53.034;18.576;2023-02-28T06:42:44;-3.99;88.52
70928;SHT31;58587;53.034;18.576;2023-02-28T06:45:10;-3.95;88.30
70928;SHT31;58587;53.034;18.576;2023-02-28T06:47:37;-3.85;88.22
70928;SHT31;58587;53.034;18.576;2023-02-28T06:50:04;-3.79;88.50
70928;SHT31;58587;53.034;18.576;2023-02-28T06:52:29;-3.75;88.42
70928;SHT31;58587;53.034;18.576;2023-02-28T06:54:55;-3.67;88.45
70928;SHT31;58587;53.034;18.576;2023-02-28T06:57:27;-3.58;88.32
70928;SHT31;58587;53.034;18.576;2023-02-28T06:59:52;-3.52;88.23
70928;SHT31;58587;53.034;18.576;2023-02-28T07:02:18;-3.47;88.22
70928;SHT31;58587;53.034;18.576;2023-02-28T07:04:43;-3.36;88.58
70928;SHT31;58587;53.034;18.576;2023-02-28T07:07:09;-3.28;88.53
70928;SHT31;58587;53.034;18.576;2023-02-28T07:09:35;-3.23;88.53
70928;SHT31;58587;53.034;18.576;2023-02-28T07:12:00;-3.10;88.64
70928;SHT31;58587;53.034;18.576;2023-02-28T07:14:25;-3.04;88.34
70928;SHT31;58587;53.034;18.576;2023-02-28T07:16:51;-2.93;88.54
70928;SHT31;58587;53.034;18.576;2023-02-28T07:19:16;-2.86;88.49
70928;SHT31;58587;53.034;18.576;2023-02-28T07:21:42;-2.77;88.19
70928;SHT31;58587;53.034;18.576;2023-02-28T07:24:07;-2.72;87.88
70928;SHT31;58587;53.034;18.576;2023-02-28T07:26:33;-2.59;88.04
70928;SHT31;58587;53.034;18.576;2023-02-28T07:28:59;-2.51;87.72
70928;SHT31;58587;53.034;18.576;2023-02-28T07:31:24;-2.42;87.62
70928;SHT31;58587;53.034;18.576;2023-02-28T07:33:50;-2.37;87.59
70928;SHT31;58587;53.034;18.576;2023-02-28T07:36:16;-2.28;87.45
70928;SHT31;58587;53.034;18.576;2023-02-28T07:38:45;-2.17;87.35
70928;SHT31;58587;53.034;18.576;2023-02-28T07:41:13;-2.10;87.10
70928;SHT31;58587;53.034;18.576;2023-02-28T07:43:39;-2.00;86.90
70928;SHT31;58587;53.034;18.576;2023-02-28T07:46:07;-1.91;86.85
70928;SHT31;58587;53.034;18.576;2023-02-28T07:48:32;-1.81;86.63
70928;SHT31;58587;53.034;18.576;2023-02-28T07:50:59;-1.70;86.47
70928;SHT31;58587;53.034;18.576;2023-02-28T07:53:25;-1.67;86.41
70928;SHT31;58587;53.034;18.576;2023-02-28T07:55:50;-1.57;86.35
70928;SHT31;58587;53.034;18.576;2023-02-28T07:58:16;-1.50;86.21
70928;SHT31;58587;53.034;18.576;2023-02-28T08:00:41;-1.42;86.10
70928;SHT31;58587;53.034;18.576;2023-02-28T08:03:10;-1.35;85.93
70928;SHT31;58587;53.034;18.576;2023-02-28T08:05:40;-1.25;85.73
70928;SHT31;58587;53.034;18.576;2023-02-28T08:08:06;-1.18;85.43
70928;SHT31;58587;53.034;18.576;2023-02-28T08:10:32;-1.11;85.41
70928;SHT31;58587;53.034;18.576;2023-02-28T08:12:57;-0.99;85.45
70928;SHT31;58587;53.034;18.576;2023-02-28T08:15:22;-0.95;84.49
70928;SHT31;58587;53.034;18.576;2023-02-28T08:17:48;-0.87;83.48
70928;SHT31;58587;53.034;18.576;2023-02-28T08:20:13;-0.80;82.98
70928;SHT31;58587;53.034;18.576;2023-02-28T08:22:38;-0.70;83.40
70928;SHT31;58587;53.034;18.576;2023-02-28T08:25:04;-0.65;82.66
70928;SHT31;58587;53.034;18.576;2023-02-28T08:27:32;-0.57;82.08
70928;SHT31;58587;53.034;18.576;2023-02-28T08:29:57;-0.45;82.41
70928;SHT31;58587;53.034;18.576;2023-02-28T08:32:22;-0.40;82.51
70928;SHT31;58587;53.034;18.576;2023-02-28T08:34:48;-0.31;82.72
70928;SHT31;58587;53.034;18.576;2023-02-28T08:37:13;-0.23;81.61
70928;SHT31;58587;53.034;18.576;2023-02-28T08:39:38;-0.16;81.74
70928;SHT31;58587;53.034;18.576;2023-02-28T08:42:04;-0.06;81.66
70928;SHT31;58587;53.034;18.576;2023-02-28T08:44:29;0.00;79.76
70928;SHT31;58587;53.034;18.576;2023-02-28T08:46:55;0.05;80.25
70928;SHT31;58587;53.034;18.576;2023-02-28T08:49:20;0.14;79.84
70928;SHT31;58587;53.034;18.576;2023-02-28T08:51:45;0.24;79.12
70928;SHT31;58587;53.034;18.576;2023-02-28T08:54:11;0.28;79.30
70928;SHT31;58587;53.034;18.576;2023-02-28T08:56:41;0.38;79.48
70928;SHT31;58587;53.034;18.576;2023-02-28T08:59:09;0.42;77.86
70928;SHT31;58587;53.034;18.576;2023-02-28T09:01:34;0.51;77.41
70928;SHT31;58587;53.034;18.576;2023-02-28T09:04:01;0.53;77.46
70928;SHT31;58587;53.034;18.576;2023-02-28T09:06:28;0.66;78.67
70928;SHT31;58587;53.034;18.576;2023-02-28T09:08:56;0.70;77.92
70928;SHT31;58587;53.034;18.576;2023-02-28T09:11:23;0.76;75.79
70928;SHT31;58587;53.034;18.576;2023-02-28T09:13:48;0.79;75.61
70928;SHT31;58587;53.034;18.576;2023-02-28T09:16:15;0.85;74.84
70928;SHT31;58587;53.034;18.576;2023-02-28T09:18:41;0.90;75.60
70928;SHT31;58587;53.034;18.576;2023-02-28T09:21:10;1.04;75.00
70928;SHT31;58587;53.034;18.576;2023-02-28T09:23:36;1.13;72.53
70928;SHT31;58587;53.034;18.576;2023-02-28T09:26:03;1.17;71.95
70928;SHT31;58587;53.034;18.576;2023-02-28T09:28:29;1.24;72.69
70928;SHT31;58587;53.034;18.576;2023-02-28T09:30:54;1.30;71.35
70928;SHT31;58587;53.034;18.576;2023-02-28T09:33:21;1.36;71.06
70928;SHT31;58587;53.034;18.576;2023-02-28T09:35:48;1.48;73.39
70928;SHT31;58587;53.034;18.576;2023-02-28T09:38:13;1.51;70.58
70928;SHT31;58587;53.034;18.576;2023-02-28T09:40:53;1.59;70.52
70928;SHT31;58587;53.034;18.576;2023-02-28T09:43:22;1.61;69.26
70928;SHT31;58587;53.034;18.576;2023-02-28T09:45:55;1.68;70.62
70928;SHT31;58587;53.034;18.576;2023-02-28T09:48:32;1.77;69.50
70928;SHT31;58587;53.034;18.576;2023-02-28T09:51:09;1.79;65.14
70928;SHT31;58587;53.034;18.576;2023-02-28T09:53:38;1.85;66.65
70928;SHT31;58587;53.034;18.576;2023-02-28T09:56:06;1.89;67.10
70928;SHT31;58587;53.034;18.576;2023-02-28T09:58:48;1.91;66.83
70928;SHT31;58587;53.034;18.576;2023-02-28T10:04:16;1.99;68.18
70928;SHT31;58587;53.034;18.576;2023-02-28T10:06:49;2.05;67.04
70928;SHT31;58587;53.034;18.576;2023-02-28T10:09:21;2.12;66.83
70928;SHT31;58587;53.034;18.576;2023-02-28T10:11:50;2.28;66.25
70928;SHT31;58587;53.034;18.576;2023-02-28T10:14:22;2.39;66.32
70928;SHT31;58587;53.034;18.576;2023-02-28T10:16:55;2.43;64.65
70928;SHT31;58587;53.034;18.576;2023-02-28T10:19:29;2.58;65.77
70928;SHT31;58587;53.034;18.576;2023-02-28T10:22:05;2.58;63.03
70928;SHT31;58587;53.034;18.576;2023-02-28T10:24:41;2.65;62.97
70928;SHT31;58587;53.034;18.576;2023-02-28T10:27:19;2.72;62.87
70928;SHT31;58587;53.034;18.576;2023-02-28T10:29:53;2.80;62.27
70928;SHT31;58587;53.034;18.576;2023-02-28T10:32:21;2.84;60.44
70928;SHT31;58587;53.034;18.576;2023-02-28T10:37:37;3.01;60.36
70928;SHT31;58587;53.034;18.576;2023-02-28T10:40:05;3.14;59.48
70928;SHT31;58587;53.034;18.576;2023-02-28T10:42:31;3.21;58.76
70928;SHT31;58587;53.034;18.576;2023-02-28T10:45:15;3.36;59.02
70928;SHT31;58587;53.034;18.576;2023-02-28T10:50:50;3.62;58.71
70928;SHT31;58587;53.034;18.576;2023-02-28T10:55:41;4.10;60.67
70928;SHT31;58587;53.034;18.576;2023-02-28T10:58:24;4.16;56.47
70928;SHT31;58587;53.034;18.576;2023-02-28T11:00:51;4.25;55.63
70928;SHT31;58587;53.034;18.576;2023-02-28T11:03:34;4.38;54.36
70928;SHT31;58587;53.034;18.576;2023-02-28T11:06:26;4.54;55.96
70928;SHT31;58587;53.034;18.576;2023-02-28T11:08:57;4.44;53.73
70928;SHT31;58587;53.034;18.576;2023-02-28T11:11:25;4.57;56.18
70928;SHT31;58587;53.034;18.576;2023-02-28T11:13:53;4.69;54.37
70928;SHT31;58587;53.034;18.576;2023-02-28T11:16:20;4.84;55.07
70928;SHT31;58587;53.034;18.576;2023-02-28T11:18:49;5.02;55.44
70928;SHT31;58587;53.034;18.576;2023-02-28T11:21:19;5.36;55.13
70928;SHT31;58587;53.034;18.576;2023-02-28T11:23:45;5.66;55.28
70928;SHT31;58587;53.034;18.576;2023-02-28T11:26:34;5.78;54.55
70928;SHT31;58587;53.034;18.576;2023-02-28T11:29:32;5.95;53.88
70928;SHT31;58587;53.034;18.576;2023-02-28T11:32:19;6.01;50.94
70928;SHT31;58587;53.034;18.576;2023-02-28T11:34:47;6.04;51.21
70928;SHT31;58587;53.034;18.576;2023-02-28T11:37:24;6.11;51.04
70928;SHT31;58587;53.034;18.576;2023-02-28T11:39:50;6.42;52.16
70928;SHT31;58587;53.034;18.576;2023-02-28T11:45:43;6.82;51.11
70928;SHT31;58587;53.034;18.576;2023-02-28T11:47:48;7.16;50.91
70928;SHT31;58587;53.034;18.576;2023-02-28T11:53:03;7.50;50.37
70928;SHT31;58587;53.034;18.576;2023-02-28T11:55:39;7.67;49.56
70928;SHT31;58587;53.034;18.576;2023-02-28T12:06:23;8.85;45.07
70928;SHT31;58587;53.034;18.576;2023-02-28T12:09:00;9.68;43.45
70928;SHT31;58587;53.034;18.576;2023-02-28T12:27:29;13.33;35.54
70928;SHT31;58587;53.034;18.576;2023-02-28T12:30:03;13.39;35.06
70928;SHT31;58587;53.034;18.576;2023-02-28T12:32:47;15.00;33.88
70928;SHT31;58587;53.034;18.576;2023-02-28T12:35:17;16.36;32.83
70928;SHT31;58587;53.034;18.576;2023-02-28T12:37:59;16.66;30.88
70928;SHT31;58587;53.034;18.576;2023-02-28T12:40:33;17.11;29.35
70928;SHT31;58587;53.034;18.576;2023-02-28T12:43:07;17.62;27.88
70928;SHT31;58587;53.034;18.576;2023-02-28T12:45:47;18.60;26.99
70928;SHT31;58587;53.034;18.576;2023-02-28T12:48:18;18.71;25.61
70928;SHT31;58587;53.034;18.576;2023-02-28T12:50:45;19.18;25.27
70928;SHT31;58587;53.034;18.576;2023-02-28T12:55:56;19.00;23.72
70928;SHT31;58587;53.034;18.576;2023-02-28T12:58:51;17.89;26.55
70928;SHT31;58587;53.034;18.576;2023-02-28T13:01:39;19.19;24.65
70928;SHT31;58587;53.034;18.576;2023-02-28T13:04:26;19.15;24.49
70928;SHT31;58587;53.034;18.576;2023-02-28T13:07:23;19.29;24.31
70928;SHT31;58587;53.034;18.576;2023-02-28T13:09:56;19.70;24.36
70928;SHT31;58587;53.034;18.576;2023-02-28T13:12:23;19.46;23.69
70928;SHT31;58587;53.034;18.576;2023-02-28T13:14:49;19.07;23.03
70928;SHT31;58587;53.034;18.576;2023-02-28T13:17:20;19.89;24.03
70928;SHT31;58587;53.034;18.576;2023-02-28T13:19:57;19.52;21.81
70928;SHT31;58587;53.034;18.576;2023-02-28T13:24:53;20.24;19.98
70928;SHT31;58587;53.034;18.576;2023-02-28T13:27:38;21.05;20.85
70928;SHT31;58587;53.034;18.576;2023-02-28T13:33:24;20.07;18.72
70928;SHT31;58587;53.034;18.576;2023-02-28T13:38:46;20.78;19.60
70928;SHT31;58587;53.034;18.576;2023-02-28T13:44:03;20.01;20.75
70928;SHT31;58587;53.034;18.576;2023-02-28T13:46:29;18.46;20.81
70928;SHT31;58587;53.034;18.576;2023-02-28T13:48:55;19.02;22.05
70928;SHT31;58587;53.034;18.576;2023-02-28T13:54:31;19.83;20.54
70928;SHT31;58587;53.034;18.576;2023-02-28T13:57:22;18.70;20.95
70928;SHT31;58587;53.034;18.576;2023-02-28T14:05:19;19.55;21.86
70928;SHT31;58587;53.034;18.576;2023-02-28T14:07:56;18.41;21.60
70928;SHT31;58587;53.034;18.576;2023-02-28T14:10:25;16.16;23.22
70928;SHT31;58587;53.034;18.576;2023-02-28T14:20:49;13.51;27.78
70928;SHT31;58587;53.034;18.576;2023-02-28T14:31:58;14.46;25.51
70928;SHT31;58587;53.034;18.576;2023-02-28T14:34:37;15.23;24.31
70928;SHT31;58587;53.034;18.576;2023-02-28T14:37:05;14.83;23.87
70928;SHT31;58587;53.034;18.576;2023-02-28T14:39:33;15.53;25.27
70928;SHT31;58587;53.034;18.576;2023-02-28T14:41:59;15.59;25.02
70928;SHT31;58587;53.034;18.576;2023-02-28T14:44:29;15.14;24.89
70928;SHT31;58587;53.034;18.576;2023-02-28T14:46:57;15.00;25.68
70928;SHT31;58587;53.034;18.576;2023-02-28T14:49:25;14.22;26.35
70928;SHT31;58587;53.034;18.576;2023-02-28T14:52:23;13.05;27.79
70928;SHT31;58587;53.034;18.576;2023-02-28T14:54:58;12.34;29.41
70928;SHT31;58587;53.034;18.576;2023-02-28T14:57:33;11.73;30.66
70928;SHT31;58587;53.034;18.576;2023-02-28T15:00:04;11.36;32.04
70928;SHT31;58587;53.034;18.576;2023-02-28T15:02:36;10.65;32.97
70928;SHT31;58587;53.034;18.576;2023-02-28T15:05:25;10.02;34.26
70928;SHT31;58587;53.034;18.576;2023-02-28T15:08:05;9.40;34.96
70928;SHT31;58587;53.034;18.576;2023-02-28T15:10:32;9.04;36.59
70928;SHT31;58587;53.034;18.576;2023-02-28T15:13:11;8.66;36.84
70928;SHT31;58587;53.034;18.576;2023-02-28T15:16:03;8.12;38.59
70928;SHT31;58587;53.034;18.576;2023-02-28T15:18:49;7.81;39.64
70928;SHT31;58587;53.034;18.576;2023-02-28T15:21:24;7.67;39.86
70928;SHT31;58587;53.034;18.576;2023-02-28T15:26:40;7.07;42.72
70928;SHT31;58587;53.034;18.576;2023-02-28T15:29:15;6.77;44.13
70928;SHT31;58587;53.034;18.576;2023-02-28T15:31:48;6.46;43.32
70928;SHT31;58587;53.034;18.576;2023-02-28T15:34:22;6.25;44.42
70928;SHT31;58587;53.034;18.576;2023-02-28T15:36:48;6.17;44.59
70928;SHT31;58587;53.034;18.576;2023-02-28T15:39:27;5.98;46.03
70928;SHT31;58587;53.034;18.576;2023-02-28T15:42:20;5.71;46.98
70928;SHT31;58587;53.034;18.576;2023-02-28T15:44:46;5.53;47.83
70928;SHT31;58587;53.034;18.576;2023-02-28T15:47:19;5.18;47.16
70928;SHT31;58587;53.034;18.576;2023-02-28T15:49:58;5.06;48.40
70928;SHT31;58587;53.034;18.576;2023-02-28T15:52:28;4.99;49.24
70928;SHT31;58587;53.034;18.576;2023-02-28T15:54:56;4.81;49.91
70928;SHT31;58587;53.034;18.576;2023-02-28T15:57:25;4.61;51.40
70928;SHT31;58587;53.034;18.576;2023-02-28T15:59:55;4.47;51.31
70928;SHT31;58587;53.034;18.576;2023-02-28T16:02:35;4.31;52.16
70928;SHT31;58587;53.034;18.576;2023-02-28T16:05:24;4.18;52.22
70928;SHT31;58587;53.034;18.576;2023-02-28T16:07:54;4.01;53.17
70928;SHT31;58587;53.034;18.576;2023-02-28T16:10:21;3.87;53.03
70928;SHT31;58587;53.034;18.576;2023-02-28T16:12:48;3.82;53.79
70928;SHT31;58587;53.034;18.576;2023-02-28T16:15:20;3.72;55.49
70928;SHT31;58587;53.034;18.576;2023-02-28T16:17:46;3.63;56.10
70928;SHT31;58587;53.034;18.576;2023-02-28T16:20:17;3.52;55.66
70928;SHT31;58587;53.034;18.576;2023-02-28T16:22:43;3.38;57.20
70928;SHT31;58587;53.034;18.576;2023-02-28T16:25:18;3.24;58.79
70928;SHT31;58587;53.034;18.576;2023-02-28T16:27:45;3.14;59.58
70928;SHT31;58587;53.034;18.576;2023-02-28T16:30:21;3.03;59.40
70928;SHT31;58587;53.034;18.576;2023-02-28T16:32:50;2.95;60.16
70928;SHT31;58587;53.034;18.576;2023-02-28T16:35:17;2.81;61.65
70928;SHT31;58587;53.034;18.576;2023-02-28T16:37:43;2.68;61.01
70928;SHT31;58587;53.034;18.576;2023-02-28T16:40:28;2.58;61.68
70928;SHT31;58587;53.034;18.576;2023-02-28T16:42:59;2.44;62.18
70928;SHT31;58587;53.034;18.576;2023-02-28T16:45:27;2.29;61.70
70928;SHT31;58587;53.034;18.576;2023-02-28T16:47:56;2.16;62.24
70928;SHT31;58587;53.034;18.576;2023-02-28T16:50:24;2.05;63.21
70928;SHT31;58587;53.034;18.576;2023-02-28T16:52:50;1.94;64.73
70928;SHT31;58587;53.034;18.576;2023-02-28T16:55:19;1.79;65.84
70928;SHT31;58587;53.034;18.576;2023-02-28T16:57:50;1.69;66.38
70928;SHT31;58587;53.034;18.576;2023-02-28T17:00:16;1.65;65.92
70928;SHT31;58587;53.034;18.576;2023-02-28T17:02:42;1.59;66.26
70928;SHT31;58587;53.034;18.576;2023-02-28T17:05:10;1.48;66.63
70928;SHT31;58587;53.034;18.576;2023-02-28T17:07:35;1.36;67.90
70928;SHT31;58587;53.034;18.576;2023-02-28T17:10:01;1.26;67.90
70928;SHT31;58587;53.034;18.576;2023-02-28T17:12:33;1.16;67.47
70928;SHT31;58587;53.034;18.576;2023-02-28T17:14:58;1.16;67.52
70928;SHT31;58587;53.034;18.576;2023-02-28T17:17:24;1.07;68.36
70928;SHT31;58587;53.034;18.576;2023-02-28T17:19:50;0.97;69.03
70928;SHT31;58587;53.034;18.576;2023-02-28T17:22:16;0.89;69.36
70928;SHT31;58587;53.034;18.576;2023-02-28T17:24:41;0.80;69.45
70928;SHT31;58587;53.034;18.576;2023-02-28T17:27:13;0.75;69.82
70928;SHT31;58587;53.034;18.576;2023-02-28T17:29:38;0.66;70.23
70928;SHT31;58587;53.034;18.576;2023-02-28T17:32:04;0.61;70.16
70928;SHT31;58587;53.034;18.576;2023-02-28T17:34:29;0.53;70.48
70928;SHT31;58587;53.034;18.576;2023-02-28T17:36:54;0.52;70.80
70928;SHT31;58587;53.034;18.576;2023-02-28T17:39:20;0.48;70.95
70928;SHT31;58587;53.034;18.576;2023-02-28T17:41:52;0.33;71.46
70928;SHT31;58587;53.034;18.576;2023-02-28T17:44:19;0.28;71.39
70928;SHT31;58587;53.034;18.576;2023-02-28T17:46:45;0.25;71.75
70928;SHT31;58587;53.034;18.576;2023-02-28T17:49:10;0.17;72.08
70928;SHT31;58587;53.034;18.576;2023-02-28T17:51:36;0.14;72.68
70928;SHT31;58587;53.034;18.576;2023-02-28T17:54:01;0.14;73.00
70928;SHT31;58587;53.034;18.576;2023-02-28T17:56:27;0.12;72.94
70928;SHT31;58587;53.034;18.576;2023-02-28T17:58:54;0.08;73.33
70928;SHT31;58587;53.034;18.576;2023-02-28T18:01:20;0.11;74.89
70928;SHT31;58587;53.034;18.576;2023-02-28T18:03:47;0.08;74.57
70928;SHT31;58587;53.034;18.576;2023-02-28T18:06:19;0.01;74.85
70928;SHT31;58587;53.034;18.576;2023-02-28T18:08:45;0.01;75.27
70928;SHT31;58587;53.034;18.576;2023-02-28T18:11:10;0.07;74.73
70928;SHT31;58587;53.034;18.576;2023-02-28T18:13:44;0.10;75.33
70928;SHT31;58587;53.034;18.576;2023-02-28T18:16:09;0.02;75.50
70928;SHT31;58587;53.034;18.576;2023-02-28T18:18:34;-0.02;75.22
70928;SHT31;58587;53.034;18.576;2023-02-28T18:21:04;-0.06;75.67
70928;SHT31;58587;53.034;18.576;2023-02-28T18:23:30;-0.09;75.80
70928;SHT31;58587;53.034;18.576;2023-02-28T18:25:55;-0.12;75.85
70928;SHT31;58587;53.034;18.576;2023-02-28T18:28:20;-0.13;75.64
70928;SHT31;58587;53.034;18.576;2023-02-28T18:30:46;-0.17;75.61
70928;SHT31;58587;53.034;18.576;2023-02-28T18:33:11;-0.24;76.00
70928;SHT31;58587;53.034;18.576;2023-02-28T18:35:36;-0.26;75.96
70928;SHT31;58587;53.034;18.576;2023-02-28T18:38:08;-0.31;76.35
70928;SHT31;58587;53.034;18.576;2023-02-28T18:40:34;-0.36;76.78
70928;SHT31;58587;53.034;18.576;2023-02-28T18:42:59;-0.38;76.84
70928;SHT31;58587;53.034;18.576;2023-02-28T18:45:26;-0.43;76.73
70928;SHT31;58587;53.034;18.576;2023-02-28T18:47:51;-0.47;76.81
70928;SHT31;58587;53.034;18.576;2023-02-28T18:50:17;-0.47;76.81
70928;SHT31;58587;53.034;18.576;2023-02-28T18:52:42;-0.53;77.20
70928;SHT31;58587;53.034;18.576;2023-02-28T18:55:07;-0.54;77.24
70928;SHT31;58587;53.034;18.576;2023-02-28T18:57:34;-0.60;77.23
70928;SHT31;58587;53.034;18.576;2023-02-28T19:00:00;-0.64;77.49
70928;SHT31;58587;53.034;18.576;2023-02-28T19:02:25;-0.67;77.66
70928;SHT31;58587;53.034;18.576;2023-02-28T19:04:51;-0.68;77.72
70928;SHT31;58587;53.034;18.576;2023-02-28T19:07:16;-0.70;77.75
70928;SHT31;58587;53.034;18.576;2023-02-28T19:09:41;-0.74;77.98
70928;SHT31;58587;53.034;18.576;2023-02-28T19:12:07;-0.75;78.01
70928;SHT31;58587;53.034;18.576;2023-02-28T19:14:32;-0.77;78.08
70928;SHT31;58587;53.034;18.576;2023-02-28T19:16:57;-0.81;78.34
70928;SHT31;58587;53.034;18.576;2023-02-28T19:19:23;-0.84;78.38
70928;SHT31;58587;53.034;18.576;2023-02-28T19:21:48;-0.85;78.58
70928;SHT31;58587;53.034;18.576;2023-02-28T19:24:13;-0.85;78.46
70928;SHT31;58587;53.034;18.576;2023-02-28T19:26:38;-0.89;78.90
70928;SHT31;58587;53.034;18.576;2023-02-28T19:29:04;-0.92;78.73
70928;SHT31;58587;53.034;18.576;2023-02-28T19:31:29;-0.94;78.91
70928;SHT31;58587;53.034;18.576;2023-02-28T19:33:55;-0.95;79.02
70928;SHT31;58587;53.034;18.576;2023-02-28T19:36:21;-0.95;79.30
70928;SHT31;58587;53.034;18.576;2023-02-28T19:38:47;-1.02;79.03
70928;SHT31;58587;53.034;18.576;2023-02-28T19:41:14;-1.04;79.39
70928;SHT31;58587;53.034;18.576;2023-02-28T19:43:40;-0.99;80.04
70928;SHT31;58587;53.034;18.576;2023-02-28T19:46:06;-1.02;79.68
70928;SHT31;58587;53.034;18.576;2023-02-28T19:48:32;-1.08;79.40
70928;SHT31;58587;53.034;18.576;2023-02-28T19:51:05;-1.09;79.61
70928;SHT31;58587;53.034;18.576;2023-02-28T19:53:32;-1.13;79.68
70928;SHT31;58587;53.034;18.576;2023-02-28T19:55:58;-1.16;79.78
70928;SHT31;58587;53.034;18.576;2023-02-28T19:58:28;-1.15;79.78
70928;SHT31;58587;53.034;18.576;2023-02-28T20:00:54;-1.18;79.69
70928;SHT31;58587;53.034;18.576;2023-02-28T20:03:19;-1.18;79.71
70928;SHT31;58587;53.034;18.576;2023-02-28T20:05:45;-1.20;79.39
70928;SHT31;58587;53.034;18.576;2023-02-28T20:08:12;-1.25;79.92
70928;SHT31;58587;53.034;18.576;2023-02-28T20:10:37;-1.28;79.73
70928;SHT31;58587;53.034;18.576;2023-02-28T20:13:03;-1.28;79.92
70928;SHT31;58587;53.034;18.576;2023-02-28T20:15:29;-1.32;80.12
70928;SHT31;58587;53.034;18.576;2023-02-28T20:17:54;-1.36;80.14
70928;SHT31;58587;53.034;18.576;2023-02-28T20:20:22;-1.38;80.41
70928;SHT31;58587;53.034;18.576;2023-02-28T20:22:47;-1.38;80.36
70928;SHT31;58587;53.034;18.576;2023-02-28T20:25:13;-1.42;80.29
70928;SHT31;58587;53.034;18.576;2023-02-28T20:27:38;-1.42;80.46
70928;SHT31;58587;53.034;18.576;2023-02-28T20:30:04;-1.46;80.58
70928;SHT31;58587;53.034;18.576;2023-02-28T20:32:30;-1.48;80.66
70928;SHT31;58587;53.034;18.576;2023-02-28T20:34:55;-1.46;80.47
70928;SHT31;58587;53.034;18.576;2023-02-28T20:37:20;-1.55;80.59
70928;SHT31;58587;53.034;18.576;2023-02-28T20:39:46;-1.50;80.79
70928;SHT31;58587;53.034;18.576;2023-02-28T20:42:13;-1.52;80.96
70928;SHT31;58587;53.034;18.576;2023-02-28T20:44:38;-1.57;81.01
70928;SHT31;58587;53.034;18.576;2023-02-28T20:47:04;-1.57;80.72
70928;SHT31;58587;53.034;18.576;2023-02-28T20:49:29;-1.59;80.51
70928;SHT31;58587;53.034;18.576;2023-02-28T20:51:55;-1.60;80.85
70928;SHT31;58587;53.034;18.576;2023-02-28T20:54:20;-1.62;80.94
70928;SHT31;58587;53.034;18.576;2023-02-28T20:56:46;-1.60;80.85
70928;SHT31;58587;53.034;18.576;2023-02-28T20:59:11;-1.63;80.72
70928;SHT31;58587;53.034;18.576;2023-02-28T21:01:37;-1.64;80.81
70928;SHT31;58587;53.034;18.576;2023-02-28T21:04:05;-1.63;80.75
70928;SHT31;58587;53.034;18.576;2023-02-28T21:06:33;-1.66;80.93
70928;SHT31;58587;53.034;18.576;2023-02-28T21:08:59;-1.70;80.95
70928;SHT31;58587;53.034;18.576;2023-02-28T21:11:29;-1.71;80.55
70928;SHT31;58587;53.034;18.576;2023-02-28T21:13:57;-1.74;80.57
70928;SHT31;58587;53.034;18.576;2023-02-28T21:16:24;-1.77;80.66
70928;SHT31;58587;53.034;18.576;2023-02-28T21:18:51;-1.84;81.15
70928;SHT31;58587;53.034;18.576;2023-02-28T21:21:21;-1.81;81.86
70928;SHT31;58587;53.034;18.576;2023-02-28T21:23:47;-1.79;81.50
70928;SHT31;58587;53.034;18.576;2023-02-28T21:26:15;-1.81;81.50
70928;SHT31;58587;53.034;18.576;2023-02-28T21:28:42;-1.74;81.14
70928;SHT31;58587;53.034;18.576;2023-02-28T21:31:14;-1.77;81.78
70928;SHT31;58587;53.034;18.576;2023-02-28T21:33:41;-1.81;81.97
70928;SHT31;58587;53.034;18.576;2023-02-28T21:36:16;-1.80;81.84
70928;SHT31;58587;53.034;18.576;2023-02-28T21:38:44;-1.80;81.93
70928;SHT31;58587;53.034;18.576;2023-02-28T21:41:19;-1.86;81.61
70928;SHT31;58587;53.034;18.576;2023-02-28T21:43:45;-1.81;81.60
70928;SHT31;58587;53.034;18.576;2023-02-28T21:46:13;-1.89;81.62
70928;SHT31;58587;53.034;18.576;2023-02-28T21:48:39;-1.90;81.40
70928;SHT31;58587;53.034;18.576;2023-02-28T21:51:07;-1.91;81.97
70928;SHT31;58587;53.034;18.576;2023-02-28T21:53:35;-1.94;82.29
70928;SHT31;58587;53.034;18.576;2023-02-28T21:56:03;-1.95;83.16
70928;SHT31;58587;53.034;18.576;2023-02-28T21:58:29;-1.91;82.78
70928;SHT31;58587;53.034;18.576;2023-02-28T22:00:54;-1.89;83.10
70928;SHT31;58587;53.034;18.576;2023-02-28T22:03:19;-1.90;82.92
70928;SHT31;58587;53.034;18.576;2023-02-28T22:05:45;-1.95;82.95
70928;SHT31;58587;53.034;18.576;2023-02-28T22:08:10;-1.97;82.94
70928;SHT31;58587;53.034;18.576;2023-02-28T22:10:36;-1.95;82.73
70928;SHT31;58587;53.034;18.576;2023-02-28T22:13:02;-1.95;82.92
70928;SHT31;58587;53.034;18.576;2023-02-28T22:15:35;-1.98;82.72
70928;SHT31;58587;53.034;18.576;2023-02-28T22:18:01;-2.01;82.81
70928;SHT31;58587;53.034;18.576;2023-02-28T22:20:26;-2.01;82.72
